createdAt,value
2023-03-12T00:26:07.049Z,100.00
2023-03-12T00:29:35.084Z,100.00
2023-03-12T00:32:48.422Z,100.00
2023-03-12T00:35:51.209Z,100.00
2023-03-12T00:38:52.863Z,100.00
2023-03-12T00:41:50.236Z,100.00
2023-03-12T00:44:32.357Z,100.00
2023-03-12T00:47:26.418Z,100.00
2023-03-12T00:50:46.302Z,100.00
2023-03-12T00:53:54.314Z,100.00
2023-03-12T00:56:34.233Z,100.00
2023-03-12T00:59:09.525Z,100.00
2023-03-12T01:02:26.671Z,100.00
2023-03-12T01:05:29.206Z,100.00
2023-03-12T01:08:39.494Z,100.00
2023-03-12T01:12:20.233Z,100.00
2023-03-12T01:18:00.489Z,100.00
2023-03-12T01:21:12.203Z,100.00
2023-03-12T01:24:21.341Z,100.00
2023-03-12T01:27:10.256Z,100.00
2023-03-12T01:29:57.447Z,100.00
2023-03-12T01:36:25.353Z,100.00
2023-03-12T01:43:10.718Z,100.00
2023-03-12T01:47:12.906Z,100.00
2023-03-12T01:55:57.105Z,100.00
2023-03-12T02:02:06.664Z,100.00
2023-03-12T02:05:04.280Z,100.00
2023-03-12T02:13:35.927Z,100.00
2023-03-12T02:16:37.722Z,100.00
2023-03-12T02:19:56.316Z,100.00
2023-03-12T02:26:01.157Z,100.00
2023-03-12T02:29:18.826Z,100.00
2023-03-12T02:32:08.088Z,100.00
2023-03-12T02:34:45.181Z,100.00
2023-03-12T02:37:17.711Z,100.00
2023-03-12T02:39:47.359Z,100.00
2023-03-12T02:42:15.450Z,100.00
2023-03-12T02:44:44.004Z,100.00
2023-03-12T02:47:12.328Z,100.00
2023-03-12T02:49:39.867Z,100.00
2023-03-12T02:52:07.644Z,100.00
2023-03-12T02:54:36.218Z,100.00
2023-03-12T02:57:03.870Z,100.00
2023-03-12T02:59:33.298Z,100.00
2023-03-12T03:02:02.438Z,100.00
2023-03-12T03:04:30.811Z,100.00
2023-03-12T03:06:58.408Z,100.00
2023-03-12T03:09:27.929Z,100.00
2023-03-12T03:11:55.816Z,100.00
2023-03-12T03:14:25.478Z,100.00
2023-03-12T03:16:53.712Z,100.00
2023-03-12T03:19:42.878Z,100.00
2023-03-12T03:22:11.255Z,100.00
2023-03-12T03:24:38.900Z,100.00
2023-03-12T03:27:09.045Z,100.00
2023-03-12T03:29:36.713Z,100.00
2023-03-12T03:32:04.601Z,100.00
2023-03-12T03:34:39.980Z,100.00
2023-03-12T03:37:07.975Z,100.00
2023-03-12T03:39:36.978Z,100.00
2023-03-12T03:42:10.883Z,100.00
2023-03-12T03:48:05.455Z,100.00
2023-03-12T03:50:33.446Z,100.00
2023-03-12T03:53:01.184Z,100.00
2023-03-12T03:55:29.095Z,100.00
2023-03-12T03:58:09.066Z,100.00
2023-03-12T04:00:57.111Z,100.00
2023-03-12T04:04:01.741Z,100.00
2023-03-12T04:06:32.794Z,100.00
2023-03-12T04:09:50.178Z,100.00
2023-03-12T04:12:21.027Z,100.00
2023-03-12T04:14:48.965Z,100.00
2023-03-12T04:17:16.875Z,100.00
2023-03-12T04:19:55.448Z,100.00
2023-03-12T04:22:28.624Z,100.00
2023-03-12T04:24:57.721Z,100.00
2023-03-12T04:27:54.292Z,100.00
2023-03-12T04:30:29.550Z,100.00
2023-03-12T04:33:40.286Z,100.00
2023-03-12T04:36:15.001Z,100.00
2023-03-12T04:47:54.226Z,100.00
2023-03-12T04:50:47.691Z,100.00
2023-03-12T04:53:23.946Z,100.00
2023-03-12T04:56:32.762Z,100.00
2023-03-12T05:06:34.876Z,100.00
2023-03-12T05:09:18.511Z,100.00
2023-03-12T05:11:49.031Z,100.00
2023-03-12T05:14:31.713Z,100.00
2023-03-12T05:17:23.983Z,100.00
2023-03-12T05:19:54.277Z,100.00
2023-03-12T05:22:39.190Z,100.00
2023-03-12T05:25:27.922Z,100.00
2023-03-12T05:28:02.802Z,100.00
2023-03-12T05:30:47.466Z,100.00
2023-03-12T05:33:20.509Z,100.00
2023-03-12T05:35:48.508Z,100.00
2023-03-12T05:38:24.157Z,100.00
2023-03-12T05:40:54.535Z,100.00
2023-03-12T05:43:31.120Z,100.00
2023-03-12T05:46:04.367Z,100.00
2023-03-12T05:48:33.441Z,100.00
2023-03-12T05:51:05.640Z,100.00
2023-03-12T05:53:36.975Z,100.00
2023-03-12T05:56:14.840Z,100.00
2023-03-12T05:58:45.643Z,100.00
2023-03-12T06:01:22.176Z,100.00
2023-03-12T06:03:54.801Z,100.00
2023-03-12T06:06:26.665Z,100.00
2023-03-12T06:09:06.938Z,100.00
2023-03-12T06:11:44.557Z,100.00
2023-03-12T06:14:15.046Z,100.00
2023-03-12T06:17:06.314Z,100.00
2023-03-12T06:19:34.500Z,100.00
2023-03-12T06:22:07.513Z,100.00
2023-03-12T06:24:37.785Z,100.00
2023-03-12T06:27:08.271Z,100.00
2023-03-12T06:29:38.934Z,100.00
2023-03-12T06:32:12.223Z,100.00
2023-03-12T06:41:58.570Z,100.00
2023-03-12T06:45:23.015Z,100.00
2023-03-12T06:48:24.434Z,100.00
2023-03-12T06:51:08.317Z,100.00
2023-03-12T06:53:44.898Z,100.00
2023-03-12T06:56:21.911Z,100.00
2023-03-12T06:58:49.564Z,100.00
2023-03-12T07:01:22.387Z,100.00
2023-03-12T07:03:54.561Z,100.00
2023-03-12T07:06:26.444Z,100.00
2023-03-12T07:09:00.267Z,100.00
2023-03-12T07:11:31.268Z,100.00
2023-03-12T07:17:42.572Z,100.00
2023-03-12T07:20:10.780Z,100.00
2023-03-12T07:22:42.505Z,100.00
2023-03-12T07:25:39.699Z,100.00
2023-03-12T07:28:11.227Z,100.00
2023-03-12T07:31:16.847Z,100.00
2023-03-12T07:33:56.185Z,100.00
2023-03-12T07:36:25.388Z,100.00
2023-03-12T07:39:01.539Z,100.00
2023-03-12T07:41:31.855Z,100.00
2023-03-12T07:44:16.913Z,100.00
2023-03-12T07:47:22.588Z,100.00
2023-03-12T07:50:13.991Z,100.00
2023-03-12T07:52:49.270Z,100.00
2023-03-12T07:55:31.514Z,100.00
2023-03-12T07:58:01.304Z,100.00
2023-03-12T08:00:57.398Z,100.00
2023-03-12T08:03:31.294Z,100.00
2023-03-12T09:33:42.827Z,100.00
2023-03-12T09:36:14.062Z,100.00
2023-03-12T09:39:03.068Z,100.00
2023-03-12T09:41:47.386Z,100.00
2023-03-12T09:44:24.564Z,100.00
2023-03-12T09:47:00.237Z,100.00
2023-03-12T09:49:37.571Z,100.00
2023-03-12T09:52:31.894Z,100.00
2023-03-12T09:55:36.055Z,100.00
2023-03-12T09:58:50.246Z,100.00
2023-03-12T10:08:25.316Z,100.00
2023-03-12T10:11:58.750Z,100.00
2023-03-12T10:15:50.512Z,100.00
2023-03-12T10:18:58.558Z,100.00
2023-03-12T10:21:43.968Z,100.00
2023-03-12T10:24:32.070Z,100.00
2023-03-12T10:27:02.188Z,100.00
2023-03-12T10:29:33.776Z,100.00
2023-03-12T10:32:18.191Z,100.00
2023-03-12T10:35:27.699Z,100.00
2023-03-12T10:38:06.383Z,100.00
2023-03-12T10:48:27.210Z,100.00
2023-03-12T10:51:07.727Z,100.00
2023-03-12T10:53:48.584Z,100.00
2023-03-12T10:56:20.758Z,100.00
2023-03-12T10:59:24.260Z,100.00
2023-03-12T11:06:36.250Z,100.00
2023-03-12T11:09:18.297Z,100.00
2023-03-12T11:12:14.943Z,100.00
2023-03-12T11:14:58.864Z,100.00
2023-03-12T11:18:03.356Z,100.00
2023-03-12T11:20:36.533Z,100.00
2023-03-12T11:23:19.429Z,100.00
2023-03-12T11:32:52.846Z,100.00
2023-03-12T11:36:21.547Z,100.00
2023-03-12T11:43:07.782Z,100.00
2023-03-12T11:46:10.306Z,100.00
2023-03-12T11:48:58.982Z,100.00
2023-03-12T11:55:53.250Z,100.00
2023-03-12T12:01:33.697Z,100.00
2023-03-12T12:04:14.218Z,100.00
2023-03-12T12:06:50.573Z,100.00
2023-03-12T12:09:27.036Z,100.00
2023-03-12T12:16:37.308Z,100.00
2023-03-12T12:19:41.911Z,100.00
2023-03-12T12:22:47.515Z,100.00
2023-03-12T12:26:54.100Z,100.00
2023-03-12T12:33:46.822Z,100.00
2023-03-12T12:37:13.919Z,100.00
2023-03-12T12:39:47.222Z,100.00
2023-03-12T12:45:43.795Z,100.00
2023-03-12T12:48:27.253Z,100.00
2023-03-12T12:55:18.369Z,100.00
2023-03-12T12:58:21.436Z,100.00
2023-03-12T13:00:54.341Z,100.00
2023-03-12T13:03:34.708Z,100.00
2023-03-12T13:06:35.919Z,100.00
2023-03-12T13:09:47.965Z,100.00
2023-03-12T13:12:25.345Z,100.00
2023-03-12T13:15:20.426Z,100.00
2023-03-12T13:18:04.091Z,100.00
2023-03-12T13:21:04.507Z,100.00
2023-03-12T14:11:08.423Z,52.19
2023-03-12T14:13:42.572Z,56.52
2023-03-12T14:16:19.437Z,64.33
2023-03-12T14:18:47.830Z,67.17
2023-03-12T14:21:17.408Z,69.96
2023-03-12T14:23:50.852Z,70.29
2023-03-12T14:26:25.677Z,70.80
2023-03-12T14:29:00.298Z,71.69
2023-03-12T14:31:29.085Z,73.11
2023-03-12T14:34:20.819Z,74.55
2023-03-12T14:37:25.649Z,74.55
2023-03-12T14:40:22.705Z,74.14
2023-03-12T14:42:50.476Z,73.71
2023-03-12T14:45:25.893Z,73.90
2023-03-12T14:47:57.277Z,74.10
2023-03-12T14:50:37.096Z,75.60
2023-03-12T14:53:20.554Z,75.89
2023-03-12T14:55:48.135Z,75.56
2023-03-12T14:58:18.779Z,75.91
2023-03-12T15:00:59.457Z,75.33
2023-03-12T15:03:28.141Z,76.06
2023-03-12T15:05:56.535Z,75.57
2023-03-12T15:08:25.105Z,75.19
2023-03-12T15:10:58.315Z,76.09
2023-03-12T15:13:28.658Z,76.04
2023-03-12T15:15:56.811Z,76.67
2023-03-12T15:18:29.964Z,76.37
2023-03-12T15:20:59.474Z,76.48
2023-03-12T15:23:30.630Z,76.14
2023-03-12T15:26:13.511Z,76.86
2023-03-12T15:28:43.114Z,77.88
2023-03-12T15:31:17.546Z,77.58
2023-03-12T15:33:45.604Z,77.88
2023-03-12T15:36:19.179Z,78.91
2023-03-12T15:38:50.454Z,77.55
2023-03-12T15:41:42.950Z,78.62
2023-03-12T15:44:20.775Z,78.50
2023-03-12T15:46:50.413Z,78.42
2023-03-12T15:49:23.433Z,79.87
2023-03-12T15:52:24.899Z,78.75
2023-03-12T15:55:13.844Z,78.99
2023-03-12T15:57:46.159Z,80.06
2023-03-12T16:00:20.833Z,79.85
2023-03-12T16:02:54.150Z,80.35
2023-03-12T16:05:25.864Z,80.25
2023-03-12T16:07:53.956Z,80.03
2023-03-12T16:10:23.758Z,80.67
2023-03-12T16:12:58.570Z,80.14
2023-03-12T16:15:31.637Z,79.61
2023-03-12T16:17:59.763Z,79.82
2023-03-12T16:20:27.987Z,79.81
2023-03-12T16:22:55.916Z,80.02
2023-03-12T16:25:23.795Z,80.04
2023-03-12T16:27:54.112Z,80.48
2023-03-12T16:30:33.429Z,80.47
2023-03-12T16:33:03.852Z,80.09
2023-03-12T16:35:32.936Z,79.77
2023-03-12T16:38:01.680Z,79.84
2023-03-12T16:40:35.210Z,79.81
2023-03-12T16:43:06.035Z,79.43
2023-03-12T16:45:37.328Z,79.55
2023-03-12T16:48:06.209Z,79.96
2023-03-12T16:50:36.339Z,80.33
2023-03-12T16:53:04.922Z,80.74
2023-03-12T16:55:48.182Z,80.68
2023-03-12T16:58:17.589Z,79.82
2023-03-12T17:00:46.161Z,81.01
2023-03-12T17:03:36.556Z,79.63
2023-03-12T17:06:07.332Z,80.00
2023-03-12T17:08:36.125Z,80.48
2023-03-12T17:11:14.762Z,80.41
2023-03-12T17:13:42.785Z,79.53
2023-03-12T17:16:12.896Z,80.19
2023-03-12T17:18:41.659Z,79.36
2023-03-12T17:21:14.785Z,79.31
2023-03-12T17:23:43.195Z,79.98
2023-03-12T17:26:11.010Z,79.58
2023-03-12T17:28:38.809Z,78.74
2023-03-12T17:31:06.744Z,79.38
2023-03-12T17:33:34.725Z,78.95
2023-03-12T17:36:05.346Z,78.50
2023-03-12T17:38:33.572Z,78.68
2023-03-12T17:41:02.131Z,79.63
2023-03-12T17:43:30.010Z,78.81
2023-03-12T17:45:57.844Z,79.43
2023-03-12T17:48:25.763Z,78.75
2023-03-12T17:50:53.420Z,78.23
2023-03-12T17:53:21.155Z,78.73
2023-03-12T17:55:48.997Z,79.14
2023-03-12T17:58:18.945Z,79.33
2023-03-12T18:00:46.737Z,78.79
2023-03-12T18:03:14.573Z,78.69
2023-03-12T18:05:43.257Z,79.57
2023-03-12T18:08:13.545Z,78.48
2023-03-12T18:10:41.971Z,79.46
2023-03-12T18:13:09.866Z,78.12
2023-03-12T18:15:37.975Z,79.18
2023-03-12T18:18:05.947Z,78.54
2023-03-12T18:20:39.186Z,77.94
2023-03-12T18:23:07.779Z,77.49
2023-03-12T18:25:37.572Z,76.69
2023-03-12T18:28:05.468Z,75.62
2023-03-12T18:30:33.475Z,76.64
2023-03-12T18:33:01.311Z,75.45
2023-03-12T18:35:30.576Z,74.31
2023-03-12T18:37:59.201Z,73.75
2023-03-12T18:40:29.202Z,72.95
2023-03-12T18:43:00.830Z,73.33
2023-03-12T18:45:28.680Z,72.17
2023-03-12T18:47:59.390Z,71.81
2023-03-12T18:51:17.580Z,71.47
2023-03-12T18:57:54.075Z,70.63
2023-03-12T19:00:29.940Z,70.19
2023-03-12T19:03:00.792Z,69.60
2023-03-12T19:05:28.648Z,70.10
2023-03-12T19:07:58.875Z,68.91
2023-03-12T19:10:32.577Z,72.20
2023-03-12T19:13:00.563Z,71.47
2023-03-12T19:15:28.680Z,70.56
2023-03-12T19:17:57.227Z,70.77
2023-03-12T19:20:25.155Z,69.96
2023-03-12T19:22:53.063Z,70.62
2023-03-12T19:25:24.096Z,69.39
2023-03-12T19:27:51.932Z,69.83
2023-03-12T19:30:19.929Z,70.05
2023-03-12T19:32:48.735Z,68.99
2023-03-12T19:35:16.666Z,68.98
2023-03-12T19:37:44.540Z,69.38
2023-03-12T19:40:13.488Z,68.14
2023-03-12T19:42:47.334Z,68.68
2023-03-12T19:45:15.194Z,69.01
2023-03-12T19:47:42.990Z,69.08
2023-03-12T19:50:11.869Z,68.43
2023-03-12T19:52:39.712Z,69.66
2023-03-12T19:55:11.316Z,69.33
2023-03-12T19:57:42.875Z,69.09
2023-03-12T20:00:15.516Z,67.93
2023-03-12T20:02:46.016Z,68.15
2023-03-12T20:05:14.904Z,69.29
2023-03-12T20:07:42.730Z,69.96
2023-03-12T20:10:11.217Z,68.89
2023-03-12T20:12:39.793Z,68.82
2023-03-12T20:15:07.948Z,68.80
2023-03-12T20:17:35.648Z,68.95
2023-03-12T20:20:08.150Z,68.69
2023-03-12T20:22:38.728Z,69.18
2023-03-12T20:25:08.015Z,68.71
2023-03-12T20:27:41.111Z,69.87
2023-03-12T20:30:12.709Z,69.52
2023-03-12T20:32:40.706Z,70.35
2023-03-12T20:35:09.138Z,70.68
2023-03-12T20:37:37.073Z,70.65
2023-03-12T20:40:09.676Z,71.07
2023-03-12T20:42:37.501Z,71.65
2023-03-12T20:45:05.677Z,71.28
2023-03-12T20:47:34.635Z,71.19
2023-03-12T20:50:02.442Z,72.11
2023-03-12T20:52:30.652Z,71.17
2023-03-12T20:54:58.381Z,71.25
2023-03-12T20:57:26.174Z,71.75
2023-03-12T20:59:53.989Z,72.55
2023-03-12T21:02:24.159Z,72.41
2023-03-12T21:04:55.826Z,72.62
2023-03-12T21:07:23.474Z,72.98
2023-03-12T21:09:51.300Z,72.16
2023-03-12T21:12:19.086Z,72.50
2023-03-12T21:14:46.949Z,72.26
2023-03-12T21:17:14.954Z,71.56
2023-03-12T21:19:43.351Z,72.66
2023-03-12T21:22:11.575Z,72.08
2023-03-12T21:24:39.509Z,72.10
2023-03-12T21:27:11.436Z,72.49
2023-03-12T21:29:39.282Z,72.00
2023-03-12T21:32:06.973Z,72.17
2023-03-12T21:34:38.417Z,71.96
2023-03-12T21:37:06.193Z,71.49
2023-03-12T21:39:34.736Z,72.07
2023-03-12T21:42:02.547Z,71.33
2023-03-12T21:44:30.320Z,71.40
2023-03-12T21:46:58.912Z,71.62
2023-03-12T21:49:26.738Z,72.19
2023-03-12T21:51:57.754Z,71.21
2023-03-12T21:54:25.533Z,71.88
2023-03-12T21:56:53.306Z,71.53
2023-03-12T21:59:21.047Z,72.18
2023-03-12T22:01:48.802Z,71.78
2023-03-12T22:04:16.692Z,71.84
2023-03-12T22:06:44.585Z,71.91
2023-03-12T22:09:14.714Z,70.97
2023-03-12T22:11:42.594Z,71.59
2023-03-12T22:14:10.597Z,71.46
2023-03-12T22:16:38.319Z,71.75
2023-03-12T22:19:07.560Z,71.31
2023-03-12T22:21:35.423Z,71.18
2023-03-12T22:24:03.401Z,71.64
2023-03-12T22:26:31.342Z,71.31
2023-03-12T22:28:59.478Z,71.72
2023-03-12T22:31:29.214Z,71.77
2023-03-12T22:33:57.497Z,71.98
2023-03-12T22:36:25.369Z,72.23
2023-03-12T22:39:03.194Z,71.73
2023-03-12T22:41:31.362Z,72.18
2023-03-12T22:44:06.431Z,72.66
2023-03-12T22:46:34.262Z,72.50
2023-03-12T22:49:04.953Z,73.11
2023-03-12T22:51:33.290Z,73.05
2023-03-12T22:54:01.174Z,72.99
2023-03-12T22:56:29.300Z,73.21
2023-03-12T22:58:57.092Z,73.58
2023-03-12T23:01:25.254Z,73.53
2023-03-12T23:03:56.177Z,74.21
2023-03-12T23:06:25.930Z,74.26
2023-03-12T23:08:55.267Z,73.95
2023-03-12T23:11:25.523Z,73.73
2023-03-12T23:13:54.271Z,73.36
2023-03-12T23:16:25.460Z,74.34
2023-03-12T23:18:53.669Z,74.58
2023-03-12T23:21:23.052Z,73.64
2023-03-12T23:23:51.716Z,74.12
2023-03-12T23:26:22.443Z,74.05
2023-03-12T23:28:53.524Z,74.29
2023-03-12T23:31:21.459Z,73.56
2023-03-12T23:33:49.358Z,72.97
2023-03-12T23:36:19.560Z,72.64
2023-03-12T23:38:47.884Z,72.65
2023-03-12T23:41:21.486Z,72.34
2023-03-12T23:43:49.393Z,71.59
2023-03-12T23:46:17.837Z,71.92
2023-03-12T23:48:45.986Z,72.16
2023-03-12T23:51:22.134Z,71.31
2023-03-12T23:53:51.664Z,71.61
2023-03-12T23:56:21.704Z,71.89
2023-03-12T23:58:50.491Z,71.84
